Terminal Aerodrome Forecast
Issued by NWS

Home | Current Version | Previous Version | Text Only | Print | Product List | Glossary On
Versions: 1 2 3 4 5 6 7 8 9 10 11 12 13 14 15 16 17 18 19 20 21 22 23
000
FTUS41 KBUF 041131
TAFIAG
TAF
KIAG 041131Z 0412/0512 19008KT P6SM SCT250
     FM041400 21014G24KT P6SM SCT120
     FM041900 24018G34KT P6SM BKN070
     FM042300 23014G26KT 6SM -SHRA VCTS BKN070CB
     FM050300 23008KT P6SM VCSH OVC040
     FM050800 00000KT P6SM OVC100=

USA.gov is the U.S. government's official web portal to all federal, state and local government web resources and services.